sensor_id;sensor_type;location;lat;lon;timestamp;pressure;altitude;pressure_sealevel;temperature;humidity
55456;BME280;63021;52.836;6.376;2023-02-05T00:02:09;103739.38;;;4.99;76.19
55456;BME280;63021;52.836;6.376;2023-02-05T00:04:37;103725.31;;;4.98;75.85
55456;BME280;63021;52.836;6.376;2023-02-05T00:07:04;103729.72;;;4.98;76.20
55456;BME280;63021;52.836;6.376;2023-02-05T00:09:39;103700.84;;;4.92;76.29
55456;BME280;63021;52.836;6.376;2023-02-05T00:12:06;103698.09;;;4.96;75.50
55456;BME280;63021;52.836;6.376;2023-02-05T00:14:31;103679.66;;;4.95;76.16
55456;BME280;63021;52.836;6.376;2023-02-05T00:16:57;103695.31;;;5.01;76.32
55456;BME280;63021;52.836;6.376;2023-02-05T00:19:22;103705.88;;;5.01;75.97
55456;BME280;63021;52.836;6.376;2023-02-05T00:21:48;103673.56;;;4.91;76.14
55456;BME280;63021;52.836;6.376;2023-02-05T00:24:13;103686.50;;;5.02;76.35
55456;BME280;63021;52.836;6.376;2023-02-05T00:26:39;103681.25;;;5.00;76.21
55456;BME280;63021;52.836;6.376;2023-02-05T00:29:05;103689.09;;;5.03;76.25
55456;BME280;63021;52.836;6.376;2023-02-05T00:31:30;103685.56;;;5.05;76.15
55456;BME280;63021;52.836;6.376;2023-02-05T00:33:56;103688.19;;;5.05;76.06
55456;BME280;63021;52.836;6.376;2023-02-05T00:36:38;103696.03;;;5.08;76.02
55456;BME280;63021;52.836;6.376;2023-02-05T00:39:13;103693.41;;;5.08;76.40
55456;BME280;63021;52.836;6.376;2023-02-05T00:41:39;103689.09;;;5.03;75.94
55456;BME280;63021;52.836;6.376;2023-02-05T00:44:12;103690.72;;;5.09;76.50
55456;BME280;63021;52.836;6.376;2023-02-05T00:46:39;103687.22;;;5.09;76.31
55456;BME280;63021;52.836;6.376;2023-02-05T00:49:04;103681.00;;;5.10;76.14
55456;BME280;63021;52.836;6.376;2023-02-05T00:51:30;103675.69;;;5.11;76.58
55456;BME280;63021;52.836;6.376;2023-02-05T00:53:55;103683.56;;;5.13;76.76
55456;BME280;63021;52.836;6.376;2023-02-05T00:56:20;103677.34;;;5.15;76.41
55456;BME280;63021;52.836;6.376;2023-02-05T00:58:49;103658.88;;;5.14;76.29
55456;BME280;63021;52.836;6.376;2023-02-05T01:01:15;103671.06;;;5.19;76.12
55456;BME280;63021;52.836;6.376;2023-02-05T01:03:43;103679.84;;;5.20;76.02
55456;BME280;63021;52.836;6.376;2023-02-05T01:06:16;103676.25;;;5.23;76.07
55456;BME280;63021;52.836;6.376;2023-02-05T01:08:42;103676.31;;;5.21;76.39
55456;BME280;63021;52.836;6.376;2023-02-05T01:11:12;103678.75;;;5.29;75.99
55456;BME280;63021;52.836;6.376;2023-02-05T01:13:39;103669.22;;;5.23;76.88
55456;BME280;63021;52.836;6.376;2023-02-05T01:16:05;103666.44;;;5.28;76.09
55456;BME280;63021;52.836;6.376;2023-02-05T01:18:32;103678.63;;;5.33;75.85
55456;BME280;63021;52.836;6.376;2023-02-05T01:20:58;103665.44;;;5.32;75.93
55456;BME280;63021;52.836;6.376;2023-02-05T01:23:45;103672.25;;;5.41;76.09
55456;BME280;63021;52.836;6.376;2023-02-05T01:29:33;103665.13;;;5.43;75.97
55456;BME280;63021;52.836;6.376;2023-02-05T01:31:58;103666.88;;;5.44;76.09
55456;BME280;63021;52.836;6.376;2023-02-05T01:34:43;103661.44;;;5.48;76.82
55456;BME280;63021;52.836;6.376;2023-02-05T01:37:08;103642.28;;;5.42;76.06
55456;BME280;63021;52.836;6.376;2023-02-05T01:39:34;103659.56;;;5.53;75.75
55456;BME280;63021;52.836;6.376;2023-02-05T01:42:23;103661.25;;;5.56;76.44
55456;BME280;63021;52.836;6.376;2023-02-05T01:48:02;103669.09;;;5.59;76.26
55456;BME280;63021;52.836;6.376;2023-02-05T01:50:31;103679.59;;;5.61;76.61
55456;BME280;63021;52.836;6.376;2023-02-05T01:53:27;103662.88;;;5.60;76.22
55456;BME280;63021;52.836;6.376;2023-02-05T01:56:16;103661.91;;;5.63;77.10
55456;BME280;63021;52.836;6.376;2023-02-05T01:59:18;103641.66;;;5.63;76.91
55456;BME280;63021;52.836;6.376;2023-02-05T02:01:46;103636.38;;;5.63;76.81
55456;BME280;63021;52.836;6.376;2023-02-05T02:04:20;103621.41;;;5.62;76.57
55456;BME280;63021;52.836;6.376;2023-02-05T02:07:11;103615.97;;;5.67;76.05
55456;BME280;63021;52.836;6.376;2023-02-05T02:09:46;103609.06;;;5.63;77.06
55456;BME280;63021;52.836;6.376;2023-02-05T02:12:15;103617.72;;;5.68;76.87
55456;BME280;63021;52.836;6.376;2023-02-05T02:14:54;103618.59;;;5.68;76.74
55456;BME280;63021;52.836;6.376;2023-02-05T02:17:28;103600.19;;;5.65;76.67
55456;BME280;63021;52.836;6.376;2023-02-05T02:20:13;103614.94;;;5.72;76.52
55456;BME280;63021;52.836;6.376;2023-02-05T02:29:22;103606.91;;;5.76;76.75
55456;BME280;63021;52.836;6.376;2023-02-05T02:32:08;103600.75;;;5.75;76.73
55456;BME280;63021;52.836;6.376;2023-02-05T02:34:43;103592.84;;;5.75;77.32
55456;BME280;63021;52.836;6.376;2023-02-05T02:37:15;103584.84;;;5.77;76.96
55456;BME280;63021;52.836;6.376;2023-02-05T02:40:22;103584.81;;;5.78;77.17
55456;BME280;63021;52.836;6.376;2023-02-05T02:43:16;103586.53;;;5.79;78.09
55456;BME280;63021;52.836;6.376;2023-02-05T02:46:02;103567.16;;;5.79;77.86
55456;BME280;63021;52.836;6.376;2023-02-05T02:48:40;103561.00;;;5.78;78.47
55456;BME280;63021;52.836;6.376;2023-02-05T02:51:11;103568.78;;;5.83;78.15
55456;BME280;63021;52.836;6.376;2023-02-05T02:53:57;103567.03;;;5.83;77.29
55456;BME280;63021;52.836;6.376;2023-02-05T02:56:27;103553.09;;;5.78;77.54
55456;BME280;63021;52.836;6.376;2023-02-05T02:59:02;103560.75;;;5.86;78.75
55456;BME280;63021;52.836;6.376;2023-02-05T03:01:51;103552.94;;;5.83;78.00
55456;BME280;63021;52.836;6.376;2023-02-05T03:07:25;103557.94;;;5.92;77.84
55456;BME280;63021;52.836;6.376;2023-02-05T03:12:29;103565.78;;;5.95;78.51
55456;BME280;63021;52.836;6.376;2023-02-05T03:14:55;103560.59;;;5.92;78.30
55456;BME280;63021;52.836;6.376;2023-02-05T03:17:24;103563.13;;;5.95;78.45
55456;BME280;63021;52.836;6.376;2023-02-05T03:22:39;103570.22;;;5.93;78.91
55456;BME280;63021;52.836;6.376;2023-02-05T03:25:05;103567.53;;;5.95;78.90
55456;BME280;63021;52.836;6.376;2023-02-05T03:27:30;103585.84;;;6.02;78.60
55456;BME280;63021;52.836;6.376;2023-02-05T03:30:03;103584.88;;;6.05;79.11
55456;BME280;63021;52.836;6.376;2023-02-05T03:33:03;103587.41;;;6.08;78.38
55456;BME280;63021;52.836;6.376;2023-02-05T03:52:44;103571.06;;;6.22;79.25
55456;BME280;63021;52.836;6.376;2023-02-05T03:55:17;103568.44;;;6.22;78.17
55456;BME280;63021;52.836;6.376;2023-02-05T03:58:31;103565.66;;;6.27;79.15
55456;BME280;63021;52.836;6.376;2023-02-05T04:00:49;103561.28;;;6.26;78.75
55456;BME280;63021;52.836;6.376;2023-02-05T04:03:14;103555.94;;;6.27;78.62
55456;BME280;63021;52.836;6.376;2023-02-05T04:05:40;103547.19;;;6.25;79.23
55456;BME280;63021;52.836;6.376;2023-02-05T04:08:06;103555.72;;;6.33;78.47
55456;BME280;63021;52.836;6.376;2023-02-05T04:10:31;103546.13;;;6.31;78.64
55456;BME280;63021;52.836;6.376;2023-02-05T04:12:56;103563.53;;;6.36;79.17
55456;BME280;63021;52.836;6.376;2023-02-05T04:15:22;103547.03;;;6.30;78.81
55456;BME280;63021;52.836;6.376;2023-02-05T04:17:47;103563.50;;;6.38;78.73
55456;BME280;63021;52.836;6.376;2023-02-05T04:20:12;103558.25;;;6.36;79.52
55456;BME280;63021;52.836;6.376;2023-02-05T04:22:38;103562.63;;;6.37;79.49
55456;BME280;63021;52.836;6.376;2023-02-05T04:25:03;103562.53;;;6.40;78.51
55456;BME280;63021;52.836;6.376;2023-02-05T04:27:29;103550.41;;;6.33;79.40
55456;BME280;63021;52.836;6.376;2023-02-05T04:29:54;103549.28;;;6.40;79.31
55456;BME280;63021;52.836;6.376;2023-02-05T04:32:20;103539.66;;;6.39;79.46
55456;BME280;63021;52.836;6.376;2023-02-05T04:34:46;103547.47;;;6.43;79.61
55456;BME280;63021;52.836;6.376;2023-02-05T04:37:11;103536.22;;;6.36;78.89
55456;BME280;63021;52.836;6.376;2023-02-05T04:39:36;103530.81;;;6.39;79.20
55456;BME280;63021;52.836;6.376;2023-02-05T04:42:02;103532.41;;;6.45;80.16
55456;BME280;63021;52.836;6.376;2023-02-05T04:44:27;103539.41;;;6.46;79.66
55456;BME280;63021;52.836;6.376;2023-02-05T04:46:53;103548.16;;;6.48;79.69
55456;BME280;63021;52.836;6.376;2023-02-05T04:49:18;103544.66;;;6.47;79.59
55456;BME280;63021;52.836;6.376;2023-02-05T04:51:44;103544.53;;;6.50;80.04
55456;BME280;63021;52.836;6.376;2023-02-05T04:54:09;103550.72;;;6.51;80.07
55456;BME280;63021;52.836;6.376;2023-02-05T04:56:35;103547.97;;;6.54;80.71
55456;BME280;63021;52.836;6.376;2023-02-05T04:59:00;103547.13;;;6.52;80.34
55456;BME280;63021;52.836;6.376;2023-02-05T05:01:26;103544.38;;;6.55;80.17
55456;BME280;63021;52.836;6.376;2023-02-05T05:03:51;103551.47;;;6.54;80.71
55456;BME280;63021;52.836;6.376;2023-02-05T05:06:17;103559.34;;;6.56;80.79
55456;BME280;63021;52.836;6.376;2023-02-05T05:08:43;103565.56;;;6.55;80.50
55456;BME280;63021;52.836;6.376;2023-02-05T05:11:14;103553.19;;;6.55;80.75
55456;BME280;63021;52.836;6.376;2023-02-05T05:13:40;103559.28;;;6.57;80.78
55456;BME280;63021;52.836;6.376;2023-02-05T05:16:07;103548.66;;;6.59;81.23
55456;BME280;63021;52.836;6.376;2023-02-05T05:18:33;103532.94;;;6.54;81.13
55456;BME280;63021;52.836;6.376;2023-02-05T05:20:59;103543.41;;;6.57;80.99
55456;BME280;63021;52.836;6.376;2023-02-05T05:23:25;103533.72;;;6.58;80.75
55456;BME280;63021;52.836;6.376;2023-02-05T05:25:50;103538.88;;;6.61;81.14
55456;BME280;63021;52.836;6.376;2023-02-05T05:28:16;103537.94;;;6.62;81.57
55456;BME280;63021;52.836;6.376;2023-02-05T05:30:43;103529.09;;;6.63;81.46
55456;BME280;63021;52.836;6.376;2023-02-05T05:33:12;103515.25;;;6.55;81.82
55456;BME280;63021;52.836;6.376;2023-02-05T05:35:38;103524.88;;;6.57;81.05
55456;BME280;63021;52.836;6.376;2023-02-05T05:38:05;103531.69;;;6.65;81.60
55456;BME280;63021;52.836;6.376;2023-02-05T05:40:31;103523.13;;;6.58;81.27
55456;BME280;63021;52.836;6.376;2023-02-05T05:43:23;103534.63;;;6.57;81.46
55456;BME280;63021;52.836;6.376;2023-02-05T05:46:07;103542.56;;;6.57;81.40
55456;BME280;63021;52.836;6.376;2023-02-05T05:48:33;103556.66;;;6.57;82.09
55456;BME280;63021;52.836;6.376;2023-02-05T05:54:22;103558.06;;;6.43;82.28
55456;BME280;63021;52.836;6.376;2023-02-05T05:57:00;103559.97;;;6.37;81.49
55456;BME280;63021;52.836;6.376;2023-02-05T05:59:25;103568.13;;;6.31;81.65
55456;BME280;63021;52.836;6.376;2023-02-05T06:01:50;103554.47;;;6.18;81.07
55456;BME280;63021;52.836;6.376;2023-02-05T06:04:19;103568.41;;;6.23;82.13
55456;BME280;63021;52.836;6.376;2023-02-05T06:06:46;103562.50;;;6.15;81.57
55456;BME280;63021;52.836;6.376;2023-02-05T06:09:27;103553.69;;;6.15;81.11
55456;BME280;63021;52.836;6.376;2023-02-05T06:11:53;103560.16;;;6.06;81.23
55456;BME280;63021;52.836;6.376;2023-02-05T06:14:53;103560.25;;;6.03;81.75
55456;BME280;63021;52.836;6.376;2023-02-05T06:17:42;103576.28;;;5.97;81.64
55456;BME280;63021;52.836;6.376;2023-02-05T06:20:10;103576.56;;;5.89;80.81
55456;BME280;63021;52.836;6.376;2023-02-05T06:22:36;103560.00;;;5.82;80.70
55456;BME280;63021;52.836;6.376;2023-02-05T06:25:10;103575.75;;;5.85;80.76
55456;BME280;63021;52.836;6.376;2023-02-05T06:27:49;103571.53;;;5.80;80.96
55456;BME280;63021;52.836;6.376;2023-02-05T06:30:24;103577.94;;;5.72;81.40
55456;BME280;63021;52.836;6.376;2023-02-05T06:32:50;103580.66;;;5.69;81.62
55456;BME280;63021;52.836;6.376;2023-02-05T06:35:15;103568.63;;;5.61;80.80
55456;BME280;63021;52.836;6.376;2023-02-05T06:37:41;103593.03;;;5.69;81.14
55456;BME280;63021;52.836;6.376;2023-02-05T06:40:07;103592.16;;;5.68;80.95
55456;BME280;63021;52.836;6.376;2023-02-05T06:42:32;103558.34;;;5.50;81.43
55456;BME280;63021;52.836;6.376;2023-02-05T06:44:58;103581.88;;;5.59;81.47
55456;BME280;63021;52.836;6.376;2023-02-05T06:47:23;103599.41;;;5.62;81.58
55456;BME280;63021;52.836;6.376;2023-02-05T06:49:48;103581.28;;;5.49;81.91
55456;BME280;63021;52.836;6.376;2023-02-05T06:52:14;103597.81;;;5.56;81.88
55456;BME280;63021;52.836;6.376;2023-02-05T06:54:40;103583.19;;;5.44;82.39
55456;BME280;63021;52.836;6.376;2023-02-05T06:57:08;103586.66;;;5.46;81.81
55456;BME280;63021;52.836;6.376;2023-02-05T06:59:33;103598.81;;;5.52;82.38
55456;BME280;63021;52.836;6.376;2023-02-05T07:01:59;103598.13;;;5.45;82.12
55456;BME280;63021;52.836;6.376;2023-02-05T07:04:24;103628.69;;;5.54;82.36
55456;BME280;63021;52.836;6.376;2023-02-05T07:06:53;103633.19;;;5.52;82.43
55456;BME280;63021;52.836;6.376;2023-02-05T07:09:18;103599.22;;;5.38;81.63
55456;BME280;63021;52.836;6.376;2023-02-05T07:11:45;103622.50;;;5.55;81.84
55456;BME280;63021;52.836;6.376;2023-02-05T07:14:16;103631.25;;;5.57;82.66
55456;BME280;63021;52.836;6.376;2023-02-05T07:16:42;103632.19;;;5.54;82.52
55456;BME280;63021;52.836;6.376;2023-02-05T07:19:33;103650.63;;;5.58;82.81
55456;BME280;63021;52.836;6.376;2023-02-05T07:21:59;103655.97;;;5.56;82.87
55456;BME280;63021;52.836;6.376;2023-02-05T07:24:24;103639.47;;;5.48;82.86
55456;BME280;63021;52.836;6.376;2023-02-05T07:27:15;103645.41;;;5.54;83.28
55456;BME280;63021;52.836;6.376;2023-02-05T07:32:32;103659.50;;;5.55;82.63
55456;BME280;63021;52.836;6.376;2023-02-05T07:34:58;103679.69;;;5.58;83.18
55456;BME280;63021;52.836;6.376;2023-02-05T07:37:29;103664.78;;;5.55;83.49
55456;BME280;63021;52.836;6.376;2023-02-05T07:40:09;103674.38;;;5.59;82.92
55456;BME280;63021;52.836;6.376;2023-02-05T07:42:38;103669.25;;;5.53;83.24
55456;BME280;63021;52.836;6.376;2023-02-05T07:45:16;103671.72;;;5.59;83.33
55456;BME280;63021;52.836;6.376;2023-02-05T07:47:42;103677.09;;;5.56;83.48
55456;BME280;63021;52.836;6.376;2023-02-05T07:50:12;103666.44;;;5.59;83.51
55456;BME280;63021;52.836;6.376;2023-02-05T07:52:45;103668.34;;;5.54;83.31
55456;BME280;63021;52.836;6.376;2023-02-05T07:55:19;103685.59;;;5.66;84.02
55456;BME280;63021;52.836;6.376;2023-02-05T07:57:44;103689.94;;;5.68;83.00
55456;BME280;63021;52.836;6.376;2023-02-05T08:00:11;103697.78;;;5.71;83.69
55456;BME280;63021;52.836;6.376;2023-02-05T08:02:40;103689.03;;;5.69;83.59
55456;BME280;63021;52.836;6.376;2023-02-05T08:05:15;103688.91;;;5.74;83.30
55456;BME280;63021;52.836;6.376;2023-02-05T08:07:53;103695.88;;;5.77;83.85
55456;BME280;63021;52.836;6.376;2023-02-05T08:10:29;103693.38;;;5.72;83.50
55456;BME280;63021;52.836;6.376;2023-02-05T08:13:00;103699.22;;;5.83;83.05
55456;BME280;63021;52.836;6.376;2023-02-05T08:15:39;103700.88;;;5.86;82.78
55456;BME280;63021;52.836;6.376;2023-02-05T08:18:10;103701.72;;;5.88;83.04
55456;BME280;63021;52.836;6.376;2023-02-05T08:23:53;103691.19;;;5.86;82.84
55456;BME280;63021;52.836;6.376;2023-02-05T08:26:21;103704.16;;;5.94;82.52
55456;BME280;63021;52.836;6.376;2023-02-05T08:31:52;103717.38;;;5.94;82.08
55456;BME280;63021;52.836;6.376;2023-02-05T08:34:28;103709.47;;;5.94;81.80
55456;BME280;63021;52.836;6.376;2023-02-05T08:37:07;103701.63;;;5.91;82.35
55456;BME280;63021;52.836;6.376;2023-02-05T08:39:39;103720.81;;;5.99;82.31
55456;BME280;63021;52.836;6.376;2023-02-05T08:42:05;103720.88;;;5.96;81.96
55456;BME280;63021;52.836;6.376;2023-02-05T08:44:30;103737.47;;;6.01;82.72
55456;BME280;63021;52.836;6.376;2023-02-05T08:46:55;103738.31;;;6.03;81.89
55456;BME280;63021;52.836;6.376;2023-02-05T08:49:21;103743.63;;;6.02;82.30
55456;BME280;63021;52.836;6.376;2023-02-05T08:51:47;103746.28;;;6.02;82.19
55456;BME280;63021;52.836;6.376;2023-02-05T08:54:13;103755.09;;;6.02;82.41
55456;BME280;63021;52.836;6.376;2023-02-05T08:56:40;103742.72;;;6.03;81.91
55456;BME280;63021;52.836;6.376;2023-02-05T08:59:06;103750.81;;;5.98;82.36
55456;BME280;63021;52.836;6.376;2023-02-05T09:01:32;103754.91;;;6.09;82.64
55456;BME280;63021;52.836;6.376;2023-02-05T09:03:58;103746.06;;;6.10;81.83
55456;BME280;63021;52.836;6.376;2023-02-05T09:06:23;103753.09;;;6.11;82.24
55456;BME280;63021;52.836;6.376;2023-02-05T09:08:48;103759.94;;;6.18;82.18
55456;BME280;63021;52.836;6.376;2023-02-05T09:11:19;103763.38;;;6.20;81.25
55456;BME280;63021;52.836;6.376;2023-02-05T09:13:45;103746.78;;;6.15;81.35
55456;BME280;63021;52.836;6.376;2023-02-05T09:16:10;103766.84;;;6.22;81.07
55456;BME280;63021;52.836;6.376;2023-02-05T09:18:36;103764.94;;;6.27;81.25
55456;BME280;63021;52.836;6.376;2023-02-05T09:21:05;103771.00;;;6.31;81.24
55456;BME280;63021;52.836;6.376;2023-02-05T09:23:30;103773.59;;;6.32;80.98
55456;BME280;63021;52.836;6.376;2023-02-05T09:25:57;103782.25;;;6.37;80.76
55456;BME280;63021;52.836;6.376;2023-02-05T09:28:23;103793.66;;;6.39;80.44
55456;BME280;63021;52.836;6.376;2023-02-05T09:30:48;103803.31;;;6.40;79.98
55456;BME280;63021;52.836;6.376;2023-02-05T09:33:14;103797.94;;;6.44;78.91
55456;BME280;63021;52.836;6.376;2023-02-05T09:35:40;103800.47;;;6.48;79.37
55456;BME280;63021;52.836;6.376;2023-02-05T09:38:06;103782.16;;;6.40;78.72
55456;BME280;63021;52.836;6.376;2023-02-05T09:40:40;103770.72;;;6.40;78.23
55456;BME280;63021;52.836;6.376;2023-02-05T09:43:37;103809.94;;;6.55;78.67
55456;BME280;63021;52.836;6.376;2023-02-05T09:51:32;103809.78;;;6.60;78.69
55456;BME280;63021;52.836;6.376;2023-02-05T09:54:04;103800.34;;;6.51;78.85
55456;BME280;63021;52.836;6.376;2023-02-05T09:56:35;103840.59;;;6.63;78.23
55456;BME280;63021;52.836;6.376;2023-02-05T09:59:03;103844.94;;;6.65;78.29
55456;BME280;63021;52.836;6.376;2023-02-05T10:04:05;103845.75;;;6.67;77.73
55456;BME280;63021;52.836;6.376;2023-02-05T10:15:22;103853.38;;;6.76;77.83
55456;BME280;63021;52.836;6.376;2023-02-05T10:20:44;103863.16;;;6.74;77.30
55456;BME280;63021;52.836;6.376;2023-02-05T10:26:14;103880.91;;;6.72;76.96
55456;BME280;63021;52.836;6.376;2023-02-05T10:34:17;103901.78;;;6.82;77.72
55456;BME280;63021;52.836;6.376;2023-02-05T10:36:48;103897.19;;;6.88;77.63
55456;BME280;63021;52.836;6.376;2023-02-05T10:39:17;103891.69;;;6.94;77.46
55456;BME280;63021;52.836;6.376;2023-02-05T10:42:00;103892.50;;;6.97;77.30
55456;BME280;63021;52.836;6.376;2023-02-05T10:44:40;103897.72;;;6.98;76.94
55456;BME280;63021;52.836;6.376;2023-02-05T10:47:12;103891.47;;;7.01;77.09
55456;BME280;63021;52.836;6.376;2023-02-05T10:49:50;103898.38;;;7.06;76.56
55456;BME280;63021;52.836;6.376;2023-02-05T10:52:17;103907.16;;;7.08;77.14
55456;BME280;63021;52.836;6.376;2023-02-05T10:54:44;103923.03;;;7.08;76.05
55456;BME280;63021;52.836;6.376;2023-02-05T10:57:16;103904.66;;;7.02;76.34
55456;BME280;63021;52.836;6.376;2023-02-05T11:00:00;103919.72;;;7.02;75.39
55456;BME280;63021;52.836;6.376;2023-02-05T11:02:37;103929.50;;;6.98;75.72
55456;BME280;63021;52.836;6.376;2023-02-05T11:05:13;103933.16;;;6.96;76.13
55456;BME280;63021;52.836;6.376;2023-02-05T11:07:43;103934.88;;;6.97;75.23
55456;BME280;63021;52.836;6.376;2023-02-05T11:12:38;103929.50;;;6.98;74.96
55456;BME280;63021;52.836;6.376;2023-02-05T11:15:03;103941.81;;;7.01;74.88
55456;BME280;63021;52.836;6.376;2023-02-05T11:17:34;103941.75;;;7.02;74.10
55456;BME280;63021;52.836;6.376;2023-02-05T11:22:38;103927.56;;;7.05;74.15
55456;BME280;63021;52.836;6.376;2023-02-05T11:25:14;103930.84;;;7.13;73.39
55456;BME280;63021;52.836;6.376;2023-02-05T11:27:50;103934.25;;;7.17;73.60
55456;BME280;63021;52.836;6.376;2023-02-05T11:32:46;103925.53;;;7.13;73.79
55456;BME280;63021;52.836;6.376;2023-02-05T11:38:17;103924.44;;;7.20;73.70
55456;BME280;63021;52.836;6.376;2023-02-05T11:40:40;103933.19;;;7.22;73.44
55456;BME280;63021;52.836;6.376;2023-02-05T11:43:12;103925.13;;;7.25;73.96
55456;BME280;63021;52.836;6.376;2023-02-05T11:45:47;103929.34;;;7.33;74.29
55456;BME280;63021;52.836;6.376;2023-02-05T11:50:46;103911.44;;;7.39;73.97
55456;BME280;63021;52.836;6.376;2023-02-05T11:53:14;103919.09;;;7.49;73.40
55456;BME280;63021;52.836;6.376;2023-02-05T11:55:42;103916.25;;;7.55;73.65
55456;BME280;63021;52.836;6.376;2023-02-05T11:58:23;103925.00;;;7.57;72.45
55456;BME280;63021;52.836;6.376;2023-02-05T12:00:56;103927.53;;;7.61;72.81
55456;BME280;63021;52.836;6.376;2023-02-05T12:03:24;103921.16;;;7.66;72.05
55456;BME280;63021;52.836;6.376;2023-02-05T12:06:04;103939.53;;;7.72;72.17
55456;BME280;63021;52.836;6.376;2023-02-05T12:08:43;103924.38;;;7.75;71.60
55456;BME280;63021;52.836;6.376;2023-02-05T12:11:28;103933.22;;;7.76;70.77
55456;BME280;63021;52.836;6.376;2023-02-05T12:14:14;103943.00;;;7.74;70.48
55456;BME280;63021;52.836;6.376;2023-02-05T12:17:11;103926.34;;;7.70;69.84
55456;BME280;63021;52.836;6.376;2023-02-05T12:19:50;103934.25;;;7.72;69.42
55456;BME280;63021;52.836;6.376;2023-02-05T12:25:14;103928.88;;;7.73;70.26
55456;BME280;63021;52.836;6.376;2023-02-05T12:36:05;103925.31;;;7.74;68.83
55456;BME280;63021;52.836;6.376;2023-02-05T12:50:08;103937.28;;;7.86;69.04
55456;BME280;63021;52.836;6.376;2023-02-05T12:52:48;103946.09;;;7.87;68.13
55456;BME280;63021;52.836;6.376;2023-02-05T12:55:25;103945.19;;;7.88;68.87
55456;BME280;63021;52.836;6.376;2023-02-05T12:57:59;103945.34;;;7.83;68.60
55456;BME280;63021;52.836;6.376;2023-02-05T13:00:31;103946.94;;;7.89;68.77
55456;BME280;63021;52.836;6.376;2023-02-05T13:06:03;103960.66;;;8.00;68.75
55456;BME280;63021;52.836;6.376;2023-02-05T13:11:22;103969.28;;;8.07;68.72
55456;BME280;63021;52.836;6.376;2023-02-05T13:13:53;103979.72;;;8.11;68.90
55456;BME280;63021;52.836;6.376;2023-02-05T13:16:21;103981.47;;;8.12;68.67
55456;BME280;63021;52.836;6.376;2023-02-05T13:21:39;103994.97;;;8.06;67.66
55456;BME280;63021;52.836;6.376;2023-02-05T13:24:29;103995.97;;;8.02;67.26
55456;BME280;63021;52.836;6.376;2023-02-05T13:27:24;104009.34;;;7.99;67.39
55456;BME280;63021;52.836;6.376;2023-02-05T13:30:53;103990.00;;;7.95;67.47
55456;BME280;63021;52.836;6.376;2023-02-05T13:33:20;103997.84;;;7.98;67.88
55456;BME280;63021;52.836;6.376;2023-02-05T13:57:37;104014.56;;;8.02;67.60
55456;BME280;63021;52.836;6.376;2023-02-05T14:00:02;104025.22;;;8.01;67.96
55456;BME280;63021;52.836;6.376;2023-02-05T14:02:36;104028.69;;;8.03;68.66
55456;BME280;63021;52.836;6.376;2023-02-05T14:05:04;104019.91;;;8.01;67.89
55456;BME280;63021;52.836;6.376;2023-02-05T14:07:44;104027.09;;;7.97;67.07
55456;BME280;63021;52.836;6.376;2023-02-05T14:10:28;104044.81;;;7.96;67.11
55456;BME280;63021;52.836;6.376;2023-02-05T14:13:28;104044.91;;;7.93;66.01
55456;BME280;63021;52.836;6.376;2023-02-05T14:15:57;104048.53;;;7.91;66.42
55456;BME280;63021;52.836;6.376;2023-02-05T14:18:48;104046.72;;;7.91;66.49
55456;BME280;63021;52.836;6.376;2023-02-05T14:24:26;104029.34;;;7.83;65.74
55456;BME280;63021;52.836;6.376;2023-02-05T14:26:53;104045.03;;;7.90;66.38
55456;BME280;63021;52.836;6.376;2023-02-05T14:29:42;104049.56;;;7.87;65.93
55456;BME280;63021;52.836;6.376;2023-02-05T14:37:41;104049.81;;;7.79;66.35
55456;BME280;63021;52.836;6.376;2023-02-05T14:40:40;104054.28;;;7.77;65.19
55456;BME280;63021;52.836;6.376;2023-02-05T14:43:14;104059.63;;;7.75;65.63
55456;BME280;63021;52.836;6.376;2023-02-05T14:45:45;104063.22;;;7.74;65.55
55456;BME280;63021;52.836;6.376;2023-02-05T14:48:24;104066.88;;;7.70;64.71
55456;BME280;63021;52.836;6.376;2023-02-05T14:51:22;104055.59;;;7.63;65.03
55456;BME280;63021;52.836;6.376;2023-02-05T14:54:01;104074.94;;;7.67;65.04
55456;BME280;63021;52.836;6.376;2023-02-05T14:56:30;104077.72;;;7.62;65.39
55456;BME280;63021;52.836;6.376;2023-02-05T14:59:02;104074.22;;;7.62;65.13
55456;BME280;63021;52.836;6.376;2023-02-05T15:03:57;104069.97;;;7.56;65.82
55456;BME280;63021;52.836;6.376;2023-02-05T15:06:24;104085.81;;;7.58;65.18
55456;BME280;63021;52.836;6.376;2023-02-05T15:09:01;104080.63;;;7.55;65.82
55456;BME280;63021;52.836;6.376;2023-02-05T15:19:40;104077.22;;;7.50;65.51
55456;BME280;63021;52.836;6.376;2023-02-05T15:22:33;104089.78;;;7.44;66.43
55456;BME280;63021;52.836;6.376;2023-02-05T15:24:57;104088.88;;;7.44;65.50
55456;BME280;63021;52.836;6.376;2023-02-05T15:27:43;104108.38;;;7.43;66.47
55456;BME280;63021;52.836;6.376;2023-02-05T15:30:16;104111.06;;;7.41;66.05
55456;BME280;63021;52.836;6.376;2023-02-05T15:32:52;104109.38;;;7.39;66.08
55456;BME280;63021;52.836;6.376;2023-02-05T15:35:23;104097.22;;;7.32;66.25
55456;BME280;63021;52.836;6.376;2023-02-05T15:38:31;104105.94;;;7.35;66.58
55456;BME280;63021;52.836;6.376;2023-02-05T15:41:03;104097.28;;;7.30;67.11
55456;BME280;63021;52.836;6.376;2023-02-05T15:43:30;104102.53;;;7.32;66.98
55456;BME280;63021;52.836;6.376;2023-02-05T15:46:02;104109.59;;;7.31;67.27
55456;BME280;63021;52.836;6.376;2023-02-05T15:48:30;104114.94;;;7.29;67.66
55456;BME280;63021;52.836;6.376;2023-02-05T15:51:00;104129.16;;;7.27;67.62
55456;BME280;63021;52.836;6.376;2023-02-05T15:53:37;104128.19;;;7.29;67.59
55456;BME280;63021;52.836;6.376;2023-02-05T15:56:12;104134.41;;;7.28;67.94
55456;BME280;63021;52.836;6.376;2023-02-05T15:58:44;104130.13;;;7.24;68.08
55456;BME280;63021;52.836;6.376;2023-02-05T16:01:21;104140.75;;;7.23;68.40
55456;BME280;63021;52.836;6.376;2023-02-05T16:03:47;104140.88;;;7.18;68.51
55456;BME280;63021;52.836;6.376;2023-02-05T16:06:20;104145.31;;;7.18;68.72
55456;BME280;63021;52.836;6.376;2023-02-05T16:08:47;104140.91;;;7.17;68.43
55456;BME280;63021;52.836;6.376;2023-02-05T16:11:24;104132.16;;;7.15;69.03